Ride Results

Zone One Championships (28-09-2014)
Ride distance: 100.0 km Elevator

Outcomes - Zone One Championships (28-09-2014)
Division No. of Entries Retired / DNE Completed Withdrawn Ineligible V/O Percentage Completed
HW 15 6 7 1 - 1 86.67%
MW 20 10 5 2 - 3 75.00%
LW 16 7 3 - - 6 62.50%
JN 3 1 2 - - - 100.00%
Totals 54 24 17 3 - 10 75.93%
Results - Zone One Championships (28-09-2014)
No. Rider Horse Place Time Leg Speeds Total
Km/Hr
H/R bpm
Heavyweight
13 Con Bouzianis Conderosa Pegasus 1 (BC) 5:53:00 17.3, 16.4, 17.6 17.00 34, 44, 48, 47 (Avg:46)
39 Scott Peters Sharahd Lateefa 2 6:13:00 16.5, 16.1, 14.7 16.09 32, 48, 46, 51 (Avg:48)
11 Thomas Hermann TTH Headliner 3 (BC) 7:08:00 16.1, 12.1, 14.2 14.02 30, 40, 43, 48 (Avg:43)
32 Gavin Peacock Eclipse 4 7:13:00 15.6, 11.8, 15.5 13.86 32, 47, 52, 53 (Avg:50)
45 Robert Catlin Copperkahn Tiara 5 7:50:00 13.1, 12.6, 11.9 12.77 32, 34, 43, 39 (Avg:38)
41 Steve Brooks A'landell Pirate 6 8:45:00 12.2, 10.2, 12.8 11.43 36, 42, 44, 46 (Avg:44)
50 Sue Warren Razorback Flash 7 9:50:00 11.1, 9.4, 9.4 10.17 41, 48, 52, 51 (Avg:50)
40 Jack Johnson Sharahd Namaree Retired/DNE L2 7:48:00 11.9, 9.9 10.90 39, 42, 52 (Avg:47)
33 Rod Mitchell Aloha Tribal Warrior Retired/DNE L2 7:50:00 11.7, 9.9 10.85 33, 44, 53 (Avg:48)
28 Phil Coleman Rainbows Reach Snowfyre Retired/DNE L2 8:08:00 11.2, 9.7 10.45 36, 47, 50 (Avg:48)
5 John Dawson Danjera Elsabina Retired/DNE L2 8:48:00 11.2, 8.3 9.66 34, 50, 58 (Avg:54)
7 Jaymee Ferguson Taeaura Shayarnah Retired/DNE L2 8:48:00 11.2, 8.3 9.66 32, 40, 49 (Avg:44)
30 Claudia Reid Ningadoo Tornado Retired/DNE L2 8:53:00 10.2, 8.8 9.57 38, 47, 59 (Avg:53)
2 Steve Broadbent Glendhu Moonshine Lame L1 0:00:00 15.5 - 44, 46 (Avg:46)
48 Anthony Parker Mindari Ace High Widthdrawn L1 0:00:00 - - 36, 44 (Avg:44)
Middleweight
49 Ian Curtis Blake's Heaven Summer Wind 1 5:53:03 17.3, 16.4, 17.6 16.99 38, 44, 58, 56 (Avg:52)
17 Margaret Boland Rosebrae Cameo 2 7:50:00 14.5, 11.3, 12.1 12.77 33, 43, 44, 48 (Avg:45)
44 Clare Feary Die Kinder Junrei 2 7:50:00 13.1, 12.6, 11.9 12.77 34, 36, 48, 43 (Avg:42)
46 Gil Stevenson Thalaba Touch of Gold 4 8:00:00 12.4, 12.6, 11.9 12.50 40, 47, 49, 44 (Avg:46)
51 Tayla Warren Warren Park O.B. One 5 9:50:00 11.1, 9.4, 9.4 10.17 38, 40, 46, 45 (Avg:43)
54 April Bonham Ralvon Courier Retired/DNE L2 6:36:00 14.5, 11.3 12.88 36, 46, 52 (Avg:49)
16 Garry Bennett Misty Heights Romance Retired/DNE L2 7:29:00 11.2, 11.5 11.36 30, 39, 45 (Avg:42)
19 Michael Cummins Holly Retired/DNE L2 8:15:00 10.3, 10.2 10.30 33, 45, 47 (Avg:46)
14 Bonnie Robinson Forest Dale Dream Catcher Retired/DNE L2 8:15:00 11.1, 9.4 10.30 36, 42, 52 (Avg:47)
38 Johanne Gardiner Coolinda Park Xzinda-Ella Retired/DNE L2 8:24:00 11.0, 9.2 10.12 32, 36, 37 (Avg:36)
25 Fiona Meller Maxwell Eve Retired/DNE L2 9:16:00 9.6, 8.6 9.17 31, 39, 39 (Avg:39)
24 David Player Mirakhani Saa'meer Retired/DNE L2 9:16:00 9.6, 8.6 9.17 34, 43, 54 (Avg:48)
20 Carol Major Nyora Keanu Retired/DNE L2 9:23:00 9.3, 8.7 9.06 39, 49, 53 (Avg:51)
27 Sonya Ruprecht Alex-Ville God Be Gift Retired/DNE L2 9:23:00 9.3, 8.7 9.06 30, 42, 54 (Avg:48)
53 Alan Lindsay Kintamani Silver Motif Retired/DNE L2 9:36:00 9.8, 7.9 8.85 37, 44, 52 (Avg:48)
21 Ava Pellizzari Zzariava Valentino Heart Rate L2 0:00:00 14.9, 12.3 - 34, 40, 67 (Avg:53)
12 Tom Bouzianis Conderosa Sara Widthdrawn L1 0:00:00 - - 32, 49 (Avg:49)
37 Bruce Carter Dasharm Zayesha Lame L1 0:00:00 11.4 - 35, 42 (Avg:42)
26 Ruth Van der Wegen Aloha Ameer Widthdrawn L1 0:00:00 - - 29, 30 (Avg:30)
43 Courtney Anderson Cedar Ridge Carbine Heart Rate P/R 0:00:00 - - 36, 68 (Avg:68)
Lightweight
8 Anne Hills Evening Star 1 (BC) 7:08:00 16.1, 12.1, 14.0 14.02 31, 35, 38, 37 (Avg:36)
4 Barbara Kurcz Macquarie Park Dassan 2 7:32:00 14.9, 12.3, 11.8 13.27 32, 41, 43, 44 (Avg:42)
22 April Newman Tarnette 2 7:32:00 14.9, 12.3, 11.8 13.27 31, 37, 42, 41 (Avg:40)
1 Marion Grove Wickwood Domanic Retired/DNE L2 7:32:00 13.1, 9.7 11.28 38, 40, 40 (Avg:40)
10 Lyn Dillon Banfield Khamsin Retired/DNE L2 7:49:00 12.1, 9.7 10.87 39, 44, 50 (Avg:47)
29 Ros Ryan Rainbows Reach Scout Retired/DNE L2 8:08:00 11.2, 9.7 10.45 28, 36, 40 (Avg:38)
15 Shan Symons Dashanda Serene Retired/DNE L2 8:37:00 10.2, 9.4 9.86 29, 32, 37 (Avg:34)
35 Dianne Luker Kintamani Silver Diva Retired/DNE L2 9:12:00 9.8, 8.6 9.24 30, 42, 50 (Avg:46)
36 Sue Todd Shalacey Bear Retired/DNE L2 9:12:00 9.8, 8.6 9.24 32, 42, 48 (Avg:45)
52 Jessica Long Kintamani Silver Sorrel Retired/DNE L2 9:36:00 9.8, 7.9 8.85 35, 54, 50 (Avg:52)
34 Courtney Chapman Burren-Dah Foxing Lame L2 0:00:00 11.2, 15.2 - 41, 46, 52 (Avg:49)
23 Rhonda Locke Graciella Lame L2 0:00:00 12.1, 9.7 - 30, 34, 40 (Avg:37)
47 Faith Robinson Arabesque Winning Streak Lame L2 0:00:00 10.2, 8.8 - 38, 46, 53 (Avg:49)
6 Amanda Apperley Jon De Le Classic Lame L1 0:00:00 14.7 - 36, 44 (Avg:44)
42 Julie Brooks Aloha Byshara Lame L1 0:00:00 12.2 - 39, 44 (Avg:44)
9 Sonya Nicholls Suncrest Ghazaal Lame L1 0:00:00 11.2 - 29, 39 (Avg:39)
Junior
3 Georgia Curry Macquarie Park Banjo 1 (BC) 7:32:00 14.9, 12.3, 11.8 13.27 35, 42, 45, 45 (Avg:44)
55 Victoria Bice Georgie Girl 2 8:00:00 12.4, 12.6, 11.9 12.50 38, 45, 50, 46 (Avg:47)
18 Annabelle Cummins Aloha Vision Retired/DNE L2 9:15:00 9.4, 8.9 9.19 29, 43, 46 (Avg:44)